sensor_id;sensor_type;location;lat;lon;timestamp;P1;durP1;ratioP1;P2;durP2;ratioP2
21876;SDS011;11103;43.788;23.710;2023-03-23T00:02:06;56.97;;;37.13;;
21876;SDS011;11103;43.788;23.710;2023-03-23T00:04:31;56.03;;;35.73;;
21876;SDS011;11103;43.788;23.710;2023-03-23T00:06:57;51.63;;;33.53;;
21876;SDS011;11103;43.788;23.710;2023-03-23T00:09:25;55.63;;;34.00;;
21876;SDS011;11103;43.788;23.710;2023-03-23T00:11:51;62.87;;;40.33;;
21876;SDS011;11103;43.788;23.710;2023-03-23T00:14:21;60.07;;;38.30;;
21876;SDS011;11103;43.788;23.710;2023-03-23T00:16:48;60.17;;;39.00;;
21876;SDS011;11103;43.788;23.710;2023-03-23T00:19:15;75.53;;;43.57;;
21876;SDS011;11103;43.788;23.710;2023-03-23T00:21:44;77.27;;;44.20;;
21876;SDS011;11103;43.788;23.710;2023-03-23T00:26:44;69.63;;;42.03;;
21876;SDS011;11103;43.788;23.710;2023-03-23T00:29:12;70.83;;;41.37;;
21876;SDS011;11103;43.788;23.710;2023-03-23T00:31:38;102.30;;;43.53;;
21876;SDS011;11103;43.788;23.710;2023-03-23T00:34:04;81.50;;;41.03;;
21876;SDS011;11103;43.788;23.710;2023-03-23T00:36:31;76.83;;;41.07;;
21876;SDS011;11103;43.788;23.710;2023-03-23T00:38:58;65.47;;;40.73;;
21876;SDS011;11103;43.788;23.710;2023-03-23T00:41:24;73.40;;;40.77;;
21876;SDS011;11103;43.788;23.710;2023-03-23T00:43:52;65.57;;;39.97;;
21876;SDS011;11103;43.788;23.710;2023-03-23T00:46:18;83.93;;;38.70;;
21876;SDS011;11103;43.788;23.710;2023-03-23T00:48:45;84.23;;;40.97;;
21876;SDS011;11103;43.788;23.710;2023-03-23T00:51:11;73.97;;;39.00;;
21876;SDS011;11103;43.788;23.710;2023-03-23T00:53:38;124.50;;;42.37;;
21876;SDS011;11103;43.788;23.710;2023-03-23T00:56:05;109.03;;;41.50;;
21876;SDS011;11103;43.788;23.710;2023-03-23T00:58:31;84.17;;;39.03;;
21876;SDS011;11103;43.788;23.710;2023-03-23T01:00:56;113.43;;;43.10;;
21876;SDS011;11103;43.788;23.710;2023-03-23T01:03:22;107.37;;;44.63;;
21876;SDS011;11103;43.788;23.710;2023-03-23T01:05:50;134.23;;;42.07;;
21876;SDS011;11103;43.788;23.710;2023-03-23T01:08:17;113.63;;;42.13;;
21876;SDS011;11103;43.788;23.710;2023-03-23T01:10:45;112.73;;;42.10;;
21876;SDS011;11103;43.788;23.710;2023-03-23T01:13:11;80.67;;;41.27;;
21876;SDS011;11103;43.788;23.710;2023-03-23T01:15:37;101.10;;;39.10;;
21876;SDS011;11103;43.788;23.710;2023-03-23T01:18:03;105.10;;;38.20;;
21876;SDS011;11103;43.788;23.710;2023-03-23T01:20:30;93.17;;;38.07;;
21876;SDS011;11103;43.788;23.710;2023-03-23T01:22:57;91.13;;;40.03;;
21876;SDS011;11103;43.788;23.710;2023-03-23T01:25:29;100.47;;;43.30;;
21876;SDS011;11103;43.788;23.710;2023-03-23T01:27:56;101.77;;;43.43;;
21876;SDS011;11103;43.788;23.710;2023-03-23T01:30:22;70.50;;;39.37;;
21876;SDS011;11103;43.788;23.710;2023-03-23T01:32:48;109.97;;;42.40;;
21876;SDS011;11103;43.788;23.710;2023-03-23T01:35:14;185.57;;;45.60;;
21876;SDS011;11103;43.788;23.710;2023-03-23T01:37:41;101.00;;;44.53;;
21876;SDS011;11103;43.788;23.710;2023-03-23T01:40:07;163.00;;;41.33;;
21876;SDS011;11103;43.788;23.710;2023-03-23T01:42:34;135.53;;;42.67;;
21876;SDS011;11103;43.788;23.710;2023-03-23T01:47:48;112.90;;;42.70;;
21876;SDS011;11103;43.788;23.710;2023-03-23T01:50:16;113.77;;;47.47;;
21876;SDS011;11103;43.788;23.710;2023-03-23T01:52:43;199.10;;;44.83;;
21876;SDS011;11103;43.788;23.710;2023-03-23T01:55:08;234.93;;;46.93;;
21876;SDS011;11103;43.788;23.710;2023-03-23T01:57:34;140.60;;;47.57;;
21876;SDS011;11103;43.788;23.710;2023-03-23T02:00:01;163.03;;;45.07;;
21876;SDS011;11103;43.788;23.710;2023-03-23T02:02:39;197.37;;;47.17;;
21876;SDS011;11103;43.788;23.710;2023-03-23T02:05:08;178.77;;;46.33;;
21876;SDS011;11103;43.788;23.710;2023-03-23T02:07:37;115.47;;;43.00;;
21876;SDS011;11103;43.788;23.710;2023-03-23T02:10:03;159.30;;;47.87;;
21876;SDS011;11103;43.788;23.710;2023-03-23T02:12:29;168.20;;;47.53;;
21876;SDS011;11103;43.788;23.710;2023-03-23T02:14:55;189.30;;;48.97;;
21876;SDS011;11103;43.788;23.710;2023-03-23T02:36:39;130.20;;;53.37;;
21876;SDS011;11103;43.788;23.710;2023-03-23T02:42:06;138.73;;;55.60;;
21876;SDS011;11103;43.788;23.710;2023-03-23T02:44:36;160.57;;;57.07;;
21876;SDS011;11103;43.788;23.710;2023-03-23T02:47:06;116.43;;;52.67;;
21876;SDS011;11103;43.788;23.710;2023-03-23T02:49:37;134.40;;;52.70;;
21876;SDS011;11103;43.788;23.710;2023-03-23T02:52:08;123.07;;;49.17;;
21876;SDS011;11103;43.788;23.710;2023-03-23T02:54:41;120.23;;;50.67;;
21876;SDS011;11103;43.788;23.710;2023-03-23T02:57:09;159.80;;;48.37;;
21876;SDS011;11103;43.788;23.710;2023-03-23T02:59:35;92.63;;;46.63;;
21876;SDS011;11103;43.788;23.710;2023-03-23T03:02:11;97.17;;;48.23;;
21876;SDS011;11103;43.788;23.710;2023-03-23T03:04:40;92.37;;;46.53;;
21876;SDS011;11103;43.788;23.710;2023-03-23T03:07:23;90.57;;;46.17;;
21876;SDS011;11103;43.788;23.710;2023-03-23T03:09:55;87.40;;;46.33;;
21876;SDS011;11103;43.788;23.710;2023-03-23T03:18:03;89.47;;;46.00;;
21876;SDS011;11103;43.788;23.710;2023-03-23T03:20:38;106.83;;;46.03;;
21876;SDS011;11103;43.788;23.710;2023-03-23T03:23:10;98.97;;;45.00;;
21876;SDS011;11103;43.788;23.710;2023-03-23T03:25:38;105.73;;;43.90;;
21876;SDS011;11103;43.788;23.710;2023-03-23T03:28:07;100.70;;;47.23;;
21876;SDS011;11103;43.788;23.710;2023-03-23T03:30:33;106.40;;;43.13;;
21876;SDS011;11103;43.788;23.710;2023-03-23T03:33:02;106.40;;;42.77;;
21876;SDS011;11103;43.788;23.710;2023-03-23T03:35:27;96.43;;;40.17;;
21876;SDS011;11103;43.788;23.710;2023-03-23T03:37:54;104.50;;;40.83;;
21876;SDS011;11103;43.788;23.710;2023-03-23T03:40:21;132.13;;;42.10;;
21876;SDS011;11103;43.788;23.710;2023-03-23T03:42:47;92.17;;;41.90;;
21876;SDS011;11103;43.788;23.710;2023-03-23T03:45:16;133.50;;;43.80;;
21876;SDS011;11103;43.788;23.710;2023-03-23T03:47:43;94.07;;;41.23;;
21876;SDS011;11103;43.788;23.710;2023-03-23T03:50:09;99.27;;;42.20;;
21876;SDS011;11103;43.788;23.710;2023-03-23T03:52:36;143.70;;;41.77;;
21876;SDS011;11103;43.788;23.710;2023-03-23T03:55:03;81.37;;;41.30;;
21876;SDS011;11103;43.788;23.710;2023-03-23T03:57:29;84.67;;;41.33;;
21876;SDS011;11103;43.788;23.710;2023-03-23T03:59:55;79.67;;;42.70;;
21876;SDS011;11103;43.788;23.710;2023-03-23T04:02:21;139.73;;;42.77;;
21876;SDS011;11103;43.788;23.710;2023-03-23T04:04:47;75.47;;;39.93;;
21876;SDS011;11103;43.788;23.710;2023-03-23T04:07:13;120.93;;;42.53;;
21876;SDS011;11103;43.788;23.710;2023-03-23T04:09:39;81.37;;;41.60;;
21876;SDS011;11103;43.788;23.710;2023-03-23T04:12:08;71.67;;;38.47;;
21876;SDS011;11103;43.788;23.710;2023-03-23T04:14:34;89.20;;;36.70;;
21876;SDS011;11103;43.788;23.710;2023-03-23T04:16:59;96.27;;;34.80;;
21876;SDS011;11103;43.788;23.710;2023-03-23T04:19:25;78.00;;;32.80;;
21876;SDS011;11103;43.788;23.710;2023-03-23T04:21:53;71.00;;;32.50;;
21876;SDS011;11103;43.788;23.710;2023-03-23T04:24:20;64.13;;;34.67;;
21876;SDS011;11103;43.788;23.710;2023-03-23T04:26:46;74.23;;;35.97;;
21876;SDS011;11103;43.788;23.710;2023-03-23T04:29:12;88.87;;;35.80;;
21876;SDS011;11103;43.788;23.710;2023-03-23T04:31:38;66.60;;;32.13;;
21876;SDS011;11103;43.788;23.710;2023-03-23T04:34:04;91.73;;;37.60;;
21876;SDS011;11103;43.788;23.710;2023-03-23T04:36:29;66.73;;;35.47;;
21876;SDS011;11103;43.788;23.710;2023-03-23T04:38:55;49.67;;;32.63;;
21876;SDS011;11103;43.788;23.710;2023-03-23T04:41:21;47.33;;;29.57;;
21876;SDS011;11103;43.788;23.710;2023-03-23T04:43:48;48.33;;;32.10;;
21876;SDS011;11103;43.788;23.710;2023-03-23T04:46:17;39.50;;;27.87;;
21876;SDS011;11103;43.788;23.710;2023-03-23T04:48:44;65.00;;;39.53;;
21876;SDS011;11103;43.788;23.710;2023-03-23T04:51:10;42.33;;;29.07;;
21876;SDS011;11103;43.788;23.710;2023-03-23T04:53:37;33.03;;;24.57;;
21876;SDS011;11103;43.788;23.710;2023-03-23T04:56:02;35.37;;;26.67;;
21876;SDS011;11103;43.788;23.710;2023-03-23T04:58:28;35.20;;;26.20;;
21876;SDS011;11103;43.788;23.710;2023-03-23T05:00:54;32.57;;;25.13;;
21876;SDS011;11103;43.788;23.710;2023-03-23T05:03:20;35.10;;;25.00;;
21876;SDS011;11103;43.788;23.710;2023-03-23T05:05:46;36.27;;;26.70;;
21876;SDS011;11103;43.788;23.710;2023-03-23T05:08:20;40.30;;;27.33;;
21876;SDS011;11103;43.788;23.710;2023-03-23T05:10:50;37.67;;;25.87;;
21876;SDS011;11103;43.788;23.710;2023-03-23T05:13:17;33.43;;;25.30;;
21876;SDS011;11103;43.788;23.710;2023-03-23T05:15:42;31.97;;;24.07;;
21876;SDS011;11103;43.788;23.710;2023-03-23T05:18:08;32.93;;;24.53;;
21876;SDS011;11103;43.788;23.710;2023-03-23T05:20:35;27.23;;;21.63;;
21876;SDS011;11103;43.788;23.710;2023-03-23T05:23:00;27.03;;;20.40;;
21876;SDS011;11103;43.788;23.710;2023-03-23T05:25:26;28.37;;;21.47;;
21876;SDS011;11103;43.788;23.710;2023-03-23T05:27:51;32.13;;;22.73;;
21876;SDS011;11103;43.788;23.710;2023-03-23T05:30:18;35.77;;;24.33;;
21876;SDS011;11103;43.788;23.710;2023-03-23T05:32:46;31.10;;;23.63;;
21876;SDS011;11103;43.788;23.710;2023-03-23T05:35:15;38.40;;;26.90;;
21876;SDS011;11103;43.788;23.710;2023-03-23T05:37:42;35.77;;;26.50;;
21876;SDS011;11103;43.788;23.710;2023-03-23T05:40:08;40.23;;;27.60;;
21876;SDS011;11103;43.788;23.710;2023-03-23T05:42:34;37.93;;;26.97;;
21876;SDS011;11103;43.788;23.710;2023-03-23T05:45:02;37.10;;;26.07;;
21876;SDS011;11103;43.788;23.710;2023-03-23T05:47:28;39.20;;;26.53;;
21876;SDS011;11103;43.788;23.710;2023-03-23T05:49:55;36.77;;;25.53;;
21876;SDS011;11103;43.788;23.710;2023-03-23T05:52:21;35.20;;;25.63;;
21876;SDS011;11103;43.788;23.710;2023-03-23T05:54:48;37.33;;;26.27;;
21876;SDS011;11103;43.788;23.710;2023-03-23T05:57:14;38.63;;;26.07;;
21876;SDS011;11103;43.788;23.710;2023-03-23T05:59:40;39.33;;;26.63;;
21876;SDS011;11103;43.788;23.710;2023-03-23T06:02:05;37.27;;;26.27;;
21876;SDS011;11103;43.788;23.710;2023-03-23T06:04:31;37.33;;;26.50;;
21876;SDS011;11103;43.788;23.710;2023-03-23T06:06:59;39.63;;;27.27;;
21876;SDS011;11103;43.788;23.710;2023-03-23T06:09:26;41.90;;;27.53;;
21876;SDS011;11103;43.788;23.710;2023-03-23T06:11:51;40.63;;;28.23;;
21876;SDS011;11103;43.788;23.710;2023-03-23T06:14:17;41.60;;;28.07;;
21876;SDS011;11103;43.788;23.710;2023-03-23T06:16:42;43.13;;;28.47;;
21876;SDS011;11103;43.788;23.710;2023-03-23T06:19:08;40.97;;;27.53;;
21876;SDS011;11103;43.788;23.710;2023-03-23T06:21:34;44.97;;;28.70;;
21876;SDS011;11103;43.788;23.710;2023-03-23T06:24:00;41.73;;;29.07;;
21876;SDS011;11103;43.788;23.710;2023-03-23T06:26:28;49.43;;;31.60;;
21876;SDS011;11103;43.788;23.710;2023-03-23T06:28:57;44.13;;;29.80;;
21876;SDS011;11103;43.788;23.710;2023-03-23T06:31:22;40.57;;;27.90;;
21876;SDS011;11103;43.788;23.710;2023-03-23T06:33:49;43.63;;;28.77;;
21876;SDS011;11103;43.788;23.710;2023-03-23T06:36:15;42.90;;;27.90;;
21876;SDS011;11103;43.788;23.710;2023-03-23T06:38:41;47.33;;;33.37;;
21876;SDS011;11103;43.788;23.710;2023-03-23T06:41:07;52.10;;;34.87;;
21876;SDS011;11103;43.788;23.710;2023-03-23T06:43:33;49.03;;;31.90;;
21876;SDS011;11103;43.788;23.710;2023-03-23T06:46:00;46.63;;;30.63;;
21876;SDS011;11103;43.788;23.710;2023-03-23T06:48:26;50.10;;;30.73;;
21876;SDS011;11103;43.788;23.710;2023-03-23T06:50:52;44.23;;;29.27;;
21876;SDS011;11103;43.788;23.710;2023-03-23T06:53:18;46.87;;;31.33;;
21876;SDS011;11103;43.788;23.710;2023-03-23T06:55:45;49.97;;;34.10;;
21876;SDS011;11103;43.788;23.710;2023-03-23T06:58:11;58.10;;;43.63;;
21876;SDS011;11103;43.788;23.710;2023-03-23T07:00:36;57.13;;;44.47;;
21876;SDS011;11103;43.788;23.710;2023-03-23T07:03:02;44.67;;;31.97;;
21876;SDS011;11103;43.788;23.710;2023-03-23T07:05:28;42.90;;;28.30;;
21876;SDS011;11103;43.788;23.710;2023-03-23T07:07:55;36.73;;;28.27;;
21876;SDS011;11103;43.788;23.710;2023-03-23T07:10:20;39.50;;;27.43;;
21876;SDS011;11103;43.788;23.710;2023-03-23T07:12:46;37.03;;;26.03;;
21876;SDS011;11103;43.788;23.710;2023-03-23T07:15:12;40.13;;;26.60;;
21876;SDS011;11103;43.788;23.710;2023-03-23T07:17:38;38.57;;;28.17;;
21876;SDS011;11103;43.788;23.710;2023-03-23T07:20:04;37.87;;;27.40;;
21876;SDS011;11103;43.788;23.710;2023-03-23T07:22:31;38.87;;;28.50;;
21876;SDS011;11103;43.788;23.710;2023-03-23T07:24:56;39.27;;;27.33;;
21876;SDS011;11103;43.788;23.710;2023-03-23T07:27:22;36.87;;;26.33;;
21876;SDS011;11103;43.788;23.710;2023-03-23T07:29:47;37.37;;;27.27;;
21876;SDS011;11103;43.788;23.710;2023-03-23T07:32:13;36.73;;;26.53;;
21876;SDS011;11103;43.788;23.710;2023-03-23T07:34:38;34.60;;;26.13;;
21876;SDS011;11103;43.788;23.710;2023-03-23T07:37:05;43.87;;;27.80;;
21876;SDS011;11103;43.788;23.710;2023-03-23T07:39:31;38.60;;;28.50;;
21876;SDS011;11103;43.788;23.710;2023-03-23T07:41:57;38.27;;;27.83;;
21876;SDS011;11103;43.788;23.710;2023-03-23T07:44:22;39.00;;;27.77;;
21876;SDS011;11103;43.788;23.710;2023-03-23T07:46:48;39.03;;;28.30;;
21876;SDS011;11103;43.788;23.710;2023-03-23T07:49:13;36.20;;;27.77;;
21876;SDS011;11103;43.788;23.710;2023-03-23T07:51:39;37.57;;;27.30;;
21876;SDS011;11103;43.788;23.710;2023-03-23T07:54:05;39.83;;;27.40;;
21876;SDS011;11103;43.788;23.710;2023-03-23T07:56:32;33.83;;;25.67;;
21876;SDS011;11103;43.788;23.710;2023-03-23T07:58:58;36.57;;;26.37;;
21876;SDS011;11103;43.788;23.710;2023-03-23T08:01:24;35.87;;;25.63;;
21876;SDS011;11103;43.788;23.710;2023-03-23T08:03:50;33.50;;;24.87;;
21876;SDS011;11103;43.788;23.710;2023-03-23T08:06:16;30.10;;;22.63;;
21876;SDS011;11103;43.788;23.710;2023-03-23T08:08:42;32.67;;;23.50;;
21876;SDS011;11103;43.788;23.710;2023-03-23T08:11:07;31.27;;;22.90;;
21876;SDS011;11103;43.788;23.710;2023-03-23T08:13:33;30.73;;;22.33;;
21876;SDS011;11103;43.788;23.710;2023-03-23T08:16:00;31.13;;;22.83;;
21876;SDS011;11103;43.788;23.710;2023-03-23T08:18:28;31.40;;;23.43;;
21876;SDS011;11103;43.788;23.710;2023-03-23T08:20:55;40.40;;;23.40;;
21876;SDS011;11103;43.788;23.710;2023-03-23T08:23:20;35.07;;;24.80;;
21876;SDS011;11103;43.788;23.710;2023-03-23T08:25:46;32.10;;;23.90;;
21876;SDS011;11103;43.788;23.710;2023-03-23T08:28:12;33.87;;;24.97;;
21876;SDS011;11103;43.788;23.710;2023-03-23T08:30:39;35.37;;;24.73;;
21876;SDS011;11103;43.788;23.710;2023-03-23T08:33:05;31.60;;;24.37;;
21876;SDS011;11103;43.788;23.710;2023-03-23T08:35:32;32.80;;;24.03;;
21876;SDS011;11103;43.788;23.710;2023-03-23T08:37:57;32.60;;;24.23;;
21876;SDS011;11103;43.788;23.710;2023-03-23T08:40:23;33.67;;;25.57;;
21876;SDS011;11103;43.788;23.710;2023-03-23T08:42:50;32.40;;;24.77;;
21876;SDS011;11103;43.788;23.710;2023-03-23T08:45:17;34.73;;;24.63;;
21876;SDS011;11103;43.788;23.710;2023-03-23T08:47:45;31.87;;;24.23;;
21876;SDS011;11103;43.788;23.710;2023-03-23T08:50:15;33.37;;;24.80;;
21876;SDS011;11103;43.788;23.710;2023-03-23T08:52:42;29.70;;;23.43;;
21876;SDS011;11103;43.788;23.710;2023-03-23T08:55:08;28.90;;;22.80;;
21876;SDS011;11103;43.788;23.710;2023-03-23T08:57:35;30.40;;;23.47;;
21876;SDS011;11103;43.788;23.710;2023-03-23T09:00:02;29.57;;;23.03;;
21876;SDS011;11103;43.788;23.710;2023-03-23T09:02:38;33.43;;;23.90;;
21876;SDS011;11103;43.788;23.710;2023-03-23T09:05:03;32.17;;;24.67;;
21876;SDS011;11103;43.788;23.710;2023-03-23T09:07:29;30.30;;;23.27;;
21876;SDS011;11103;43.788;23.710;2023-03-23T09:09:54;32.33;;;23.87;;
21876;SDS011;11103;43.788;23.710;2023-03-23T09:12:20;31.63;;;23.80;;
21876;SDS011;11103;43.788;23.710;2023-03-23T09:14:45;33.93;;;24.90;;
21876;SDS011;11103;43.788;23.710;2023-03-23T09:17:11;32.60;;;24.73;;
21876;SDS011;11103;43.788;23.710;2023-03-23T09:19:38;31.97;;;23.67;;
21876;SDS011;11103;43.788;23.710;2023-03-23T09:22:05;32.13;;;23.23;;
21876;SDS011;11103;43.788;23.710;2023-03-23T09:24:30;31.10;;;23.93;;
21876;SDS011;11103;43.788;23.710;2023-03-23T09:26:56;33.30;;;24.97;;
21876;SDS011;11103;43.788;23.710;2023-03-23T09:29:23;32.43;;;24.43;;
21876;SDS011;11103;43.788;23.710;2023-03-23T09:31:49;34.27;;;25.33;;
21876;SDS011;11103;43.788;23.710;2023-03-23T09:34:14;31.63;;;24.93;;
21876;SDS011;11103;43.788;23.710;2023-03-23T09:36:40;36.67;;;26.10;;
21876;SDS011;11103;43.788;23.710;2023-03-23T09:39:06;33.90;;;26.43;;
21876;SDS011;11103;43.788;23.710;2023-03-23T09:50:21;37.60;;;26.67;;
21876;SDS011;11103;43.788;23.710;2023-03-23T09:52:58;36.13;;;26.50;;
21876;SDS011;11103;43.788;23.710;2023-03-23T09:55:27;35.13;;;25.27;;
21876;SDS011;11103;43.788;23.710;2023-03-23T09:58:05;34.20;;;26.00;;
21876;SDS011;11103;43.788;23.710;2023-03-23T10:00:41;37.40;;;26.43;;
21876;SDS011;11103;43.788;23.710;2023-03-23T10:03:15;36.40;;;26.23;;
21876;SDS011;11103;43.788;23.710;2023-03-23T10:05:46;34.20;;;25.23;;
21876;SDS011;11103;43.788;23.710;2023-03-23T10:08:24;33.60;;;24.30;;
21876;SDS011;11103;43.788;23.710;2023-03-23T10:16:11;35.83;;;25.90;;
21876;SDS011;11103;43.788;23.710;2023-03-23T10:21:28;32.83;;;23.83;;
21876;SDS011;11103;43.788;23.710;2023-03-23T10:23:58;32.23;;;24.13;;
21876;SDS011;11103;43.788;23.710;2023-03-23T10:29:22;29.97;;;23.27;;
21876;SDS011;11103;43.788;23.710;2023-03-23T10:37:04;27.83;;;21.37;;
21876;SDS011;11103;43.788;23.710;2023-03-23T10:39:38;31.67;;;22.13;;
21876;SDS011;11103;43.788;23.710;2023-03-23T10:42:27;29.07;;;22.20;;
21876;SDS011;11103;43.788;23.710;2023-03-23T10:45:21;28.23;;;21.90;;
21876;SDS011;11103;43.788;23.710;2023-03-23T10:47:57;29.10;;;21.07;;
21876;SDS011;11103;43.788;23.710;2023-03-23T10:50:31;28.70;;;19.70;;
21876;SDS011;11103;43.788;23.710;2023-03-23T10:53:00;26.07;;;19.63;;
21876;SDS011;11103;43.788;23.710;2023-03-23T10:55:36;25.70;;;20.17;;
21876;SDS011;11103;43.788;23.710;2023-03-23T10:58:26;25.20;;;19.40;;
21876;SDS011;11103;43.788;23.710;2023-03-23T11:00:54;24.30;;;19.43;;
21876;SDS011;11103;43.788;23.710;2023-03-23T11:05:53;27.63;;;19.53;;
21876;SDS011;11103;43.788;23.710;2023-03-23T11:08:26;21.53;;;17.20;;
21876;SDS011;11103;43.788;23.710;2023-03-23T11:11:08;21.43;;;16.43;;
21876;SDS011;11103;43.788;23.710;2023-03-23T11:13:48;21.17;;;15.63;;
21876;SDS011;11103;43.788;23.710;2023-03-23T11:19:21;23.70;;;19.03;;
21876;SDS011;11103;43.788;23.710;2023-03-23T11:21:51;25.83;;;18.60;;
21876;SDS011;11103;43.788;23.710;2023-03-23T11:24:21;21.07;;;16.27;;
21876;SDS011;11103;43.788;23.710;2023-03-23T11:26:48;18.93;;;16.30;;
21876;SDS011;11103;43.788;23.710;2023-03-23T11:29:20;19.03;;;15.67;;
21876;SDS011;11103;43.788;23.710;2023-03-23T11:31:49;20.37;;;16.57;;
21876;SDS011;11103;43.788;23.710;2023-03-23T11:34:19;16.73;;;14.43;;
21876;SDS011;11103;43.788;23.710;2023-03-23T11:36:52;17.67;;;15.03;;
21876;SDS011;11103;43.788;23.710;2023-03-23T11:39:25;16.03;;;13.93;;
21876;SDS011;11103;43.788;23.710;2023-03-23T11:41:56;14.30;;;12.47;;
21876;SDS011;11103;43.788;23.710;2023-03-23T11:44:26;14.10;;;12.17;;
21876;SDS011;11103;43.788;23.710;2023-03-23T11:49:37;15.53;;;13.53;;
21876;SDS011;11103;43.788;23.710;2023-03-23T11:52:15;19.13;;;14.40;;
21876;SDS011;11103;43.788;23.710;2023-03-23T11:54:56;18.00;;;13.93;;
21876;SDS011;11103;43.788;23.710;2023-03-23T11:57:30;17.47;;;14.03;;
21876;SDS011;11103;43.788;23.710;2023-03-23T11:59:56;17.47;;;14.43;;
21876;SDS011;11103;43.788;23.710;2023-03-23T12:15:45;19.80;;;14.53;;
21876;SDS011;11103;43.788;23.710;2023-03-23T12:24:09;14.73;;;12.87;;
21876;SDS011;11103;43.788;23.710;2023-03-23T12:27:10;16.13;;;13.70;;
21876;SDS011;11103;43.788;23.710;2023-03-23T12:30:02;15.47;;;13.00;;
21876;SDS011;11103;43.788;23.710;2023-03-23T12:32:45;15.67;;;12.43;;
21876;SDS011;11103;43.788;23.710;2023-03-23T12:38:08;15.13;;;12.50;;
21876;SDS011;11103;43.788;23.710;2023-03-23T12:40:44;17.13;;;12.53;;
21876;SDS011;11103;43.788;23.710;2023-03-23T12:48:49;13.77;;;12.20;;
21876;SDS011;11103;43.788;23.710;2023-03-23T12:51:21;15.67;;;12.13;;
21876;SDS011;11103;43.788;23.710;2023-03-23T12:54:03;15.87;;;12.67;;
21876;SDS011;11103;43.788;23.710;2023-03-23T12:57:09;16.50;;;12.53;;
21876;SDS011;11103;43.788;23.710;2023-03-23T13:00:02;14.73;;;12.13;;
21876;SDS011;11103;43.788;23.710;2023-03-23T13:07:43;13.90;;;12.00;;
21876;SDS011;11103;43.788;23.710;2023-03-23T13:10:18;13.80;;;11.50;;
21876;SDS011;11103;43.788;23.710;2023-03-23T13:12:47;15.57;;;11.83;;
21876;SDS011;11103;43.788;23.710;2023-03-23T13:17:54;14.57;;;12.20;;
21876;SDS011;11103;43.788;23.710;2023-03-23T13:23:13;17.83;;;12.50;;
21876;SDS011;11103;43.788;23.710;2023-03-23T13:25:52;17.47;;;12.30;;
21876;SDS011;11103;43.788;23.710;2023-03-23T13:28:32;14.13;;;11.63;;
21876;SDS011;11103;43.788;23.710;2023-03-23T13:31:14;15.17;;;11.40;;
21876;SDS011;11103;43.788;23.710;2023-03-23T13:33:46;14.47;;;11.67;;
21876;SDS011;11103;43.788;23.710;2023-03-23T13:36:15;12.93;;;11.30;;
21876;SDS011;11103;43.788;23.710;2023-03-23T13:38:49;12.47;;;11.17;;
21876;SDS011;11103;43.788;23.710;2023-03-23T13:41:17;13.13;;;11.37;;
21876;SDS011;11103;43.788;23.710;2023-03-23T13:43:46;15.83;;;13.33;;
21876;SDS011;11103;43.788;23.710;2023-03-23T13:46:24;13.93;;;12.43;;
21876;SDS011;11103;43.788;23.710;2023-03-23T13:49:16;15.83;;;12.93;;
21876;SDS011;11103;43.788;23.710;2023-03-23T13:54:28;34.20;;;26.07;;
21876;SDS011;11103;43.788;23.710;2023-03-23T13:56:59;17.03;;;14.13;;
21876;SDS011;11103;43.788;23.710;2023-03-23T14:01:55;20.67;;;16.43;;
21876;SDS011;11103;43.788;23.710;2023-03-23T14:04:22;16.57;;;12.27;;
21876;SDS011;11103;43.788;23.710;2023-03-23T14:06:56;14.40;;;11.60;;
21876;SDS011;11103;43.788;23.710;2023-03-23T14:12:22;13.60;;;11.53;;
21876;SDS011;11103;43.788;23.710;2023-03-23T14:14:56;13.37;;;10.93;;
21876;SDS011;11103;43.788;23.710;2023-03-23T14:17:28;12.73;;;11.30;;
21876;SDS011;11103;43.788;23.710;2023-03-23T14:19:58;11.70;;;10.50;;
21876;SDS011;11103;43.788;23.710;2023-03-23T14:22:26;12.67;;;11.00;;
21876;SDS011;11103;43.788;23.710;2023-03-23T14:25:17;12.93;;;10.93;;
21876;SDS011;11103;43.788;23.710;2023-03-23T14:27:45;16.30;;;11.20;;
21876;SDS011;11103;43.788;23.710;2023-03-23T14:30:18;14.50;;;10.87;;
21876;SDS011;11103;43.788;23.710;2023-03-23T14:32:46;12.70;;;11.13;;
21876;SDS011;11103;43.788;23.710;2023-03-23T14:35:33;16.70;;;12.17;;
21876;SDS011;11103;43.788;23.710;2023-03-23T14:38:00;14.37;;;12.30;;
21876;SDS011;11103;43.788;23.710;2023-03-23T14:40:27;16.63;;;11.50;;
21876;SDS011;11103;43.788;23.710;2023-03-23T14:42:55;11.77;;;10.13;;
21876;SDS011;11103;43.788;23.710;2023-03-23T14:45:22;15.70;;;11.90;;
21876;SDS011;11103;43.788;23.710;2023-03-23T14:47:57;15.07;;;12.00;;
21876;SDS011;11103;43.788;23.710;2023-03-23T14:50:26;17.97;;;11.83;;
21876;SDS011;11103;43.788;23.710;2023-03-23T14:53:12;14.20;;;12.23;;
21876;SDS011;11103;43.788;23.710;2023-03-23T14:55:43;17.10;;;13.40;;
21876;SDS011;11103;43.788;23.710;2023-03-23T14:58:12;15.43;;;13.73;;
21876;SDS011;11103;43.788;23.710;2023-03-23T15:00:42;21.70;;;14.83;;
21876;SDS011;11103;43.788;23.710;2023-03-23T15:03:13;16.17;;;13.37;;
21876;SDS011;11103;43.788;23.710;2023-03-23T15:05:46;19.07;;;13.70;;
21876;SDS011;11103;43.788;23.710;2023-03-23T15:08:17;19.63;;;14.13;;
21876;SDS011;11103;43.788;23.710;2023-03-23T15:10:54;16.50;;;13.73;;
21876;SDS011;11103;43.788;23.710;2023-03-23T15:13:25;18.97;;;15.37;;
21876;SDS011;11103;43.788;23.710;2023-03-23T15:15:50;18.87;;;14.37;;
21876;SDS011;11103;43.788;23.710;2023-03-23T15:18:27;18.17;;;13.93;;
21876;SDS011;11103;43.788;23.710;2023-03-23T15:20:56;18.30;;;14.67;;
21876;SDS011;11103;43.788;23.710;2023-03-23T15:23:25;16.17;;;14.17;;
21876;SDS011;11103;43.788;23.710;2023-03-23T15:25:53;19.93;;;14.03;;
21876;SDS011;11103;43.788;23.710;2023-03-23T15:28:30;20.03;;;13.93;;
21876;SDS011;11103;43.788;23.710;2023-03-23T15:31:00;18.17;;;13.93;;
21876;SDS011;11103;43.788;23.710;2023-03-23T15:33:35;24.70;;;15.07;;
21876;SDS011;11103;43.788;23.710;2023-03-23T15:36:06;14.93;;;13.27;;
21876;SDS011;11103;43.788;23.710;2023-03-23T15:38:34;16.70;;;13.13;;
21876;SDS011;11103;43.788;23.710;2023-03-23T15:41:02;17.10;;;13.83;;
21876;SDS011;11103;43.788;23.710;2023-03-23T15:43:31;15.57;;;13.17;;
21876;SDS011;11103;43.788;23.710;2023-03-23T15:46:01;15.03;;;13.27;;
21876;SDS011;11103;43.788;23.710;2023-03-23T15:48:49;17.37;;;13.50;;
21876;SDS011;11103;43.788;23.710;2023-03-23T15:51:15;26.80;;;14.30;;
21876;SDS011;11103;43.788;23.710;2023-03-23T15:53:43;19.33;;;13.80;;
21876;SDS011;11103;43.788;23.710;2023-03-23T15:56:09;16.10;;;13.63;;
21876;SDS011;11103;43.788;23.710;2023-03-23T15:58:36;18.90;;;13.80;;
21876;SDS011;11103;43.788;23.710;2023-03-23T16:01:26;18.13;;;14.13;;
21876;SDS011;11103;43.788;23.710;2023-03-23T16:03:51;16.73;;;14.63;;
21876;SDS011;11103;43.788;23.710;2023-03-23T16:06:23;17.90;;;13.63;;
21876;SDS011;11103;43.788;23.710;2023-03-23T16:08:51;17.57;;;14.50;;
21876;SDS011;11103;43.788;23.710;2023-03-23T16:11:18;22.40;;;15.63;;